Time;durP1;ratioP1;P1;durP2;ratioP2;P2;SDS_P1;SDS_P2;PMS_P1;PMS_P2;Temp;Humidity;BMP_temperature;BMP_pressure;BME280_temperature;BME280_humidity;BME280_pressure;Samples;Min_cycle;Max_cycle;Signal;HPM_P1;HPM_P2
2022/03/09 00:01:31;;;;;;;;;;;;;;;4.66;64.34;100413.53;4993802;28;19928;-65
2022/03/09 00:04:15;;;;;;;;;;;;;;;4.67;64.32;100411.84;4993266;28;19975;-65
2022/03/09 00:06:59;;;;;;;;;;;;;;;4.66;64.63;100417.78;4993626;28;19963;-65
2022/03/09 00:09:43;;;;;;;;;;;;;;;4.64;64.62;100422.88;4993650;28;19985;-66
2022/03/09 00:12:27;;;;;;;;;;;;;;;4.66;64.37;100415.22;4992887;28;19925;-65
2022/03/09 00:15:11;;;;;;;;;;;;;;;4.63;64.15;100418.53;4993849;28;19924;-66
2022/03/09 00:17:54;;;;;;;;;;;;;;;4.64;64.35;100416.84;4994587;28;19924;-66
2022/03/09 00:20:38;;;;;;;;;;;;;;;4.63;64.33;100421.09;4994571;28;20288;-65
2022/03/09 00:23:22;;;;;;;;;;;;;;;4.62;64.01;100423.59;4994025;28;19924;-65
2022/03/09 00:26:06;;;;;;;;;;;;;;;4.63;64.65;100425.34;4994090;28;19925;-65
2022/03/09 00:28:50;;;;;;;;;;;;;;;4.63;64.50;100421.09;4993667;28;20292;-65
2022/03/09 00:31:34;;;;;;;;;;;;;;;4.61;63.90;100426.97;4994360;28;19949;-65
2022/03/09 00:34:19;;;;;;;;;;;;;;;4.59;63.81;100424.34;4994295;28;20297;-66
2022/03/09 00:37:03;;;;;;;;;;;;;;;4.58;63.49;100427.69;4993469;28;19940;-65
2022/03/09 00:39:46;;;;;;;;;;;;;;;4.56;63.94;100425.06;4994862;28;19964;-65
2022/03/09 00:42:33;;;;;;;;;;;;;;;4.55;64.19;100425.88;4997531;28;20008;-65
2022/03/09 00:45:16;;;;;;;;;;;;;;;4.53;63.51;100421.47;4997348;28;19924;-65
2022/03/09 00:48:01;;;;;;;;;;;;;;;4.53;63.35;100430.06;4997781;28;19949;-66
2022/03/09 00:50:45;;;;;;;;;;;;;;;4.53;63.72;100430.06;4997386;28;19925;-65
2022/03/09 00:53:29;;;;;;;;;;;;;;;4.55;64.07;100428.44;4997371;28;19940;-65
2022/03/09 00:56:14;;;;;;;;;;;;;;;4.56;63.96;100416.47;4997382;28;20033;-65
2022/03/09 00:58:58;;;;;;;;;;;;;;;4.56;63.58;100417.38;4997428;28;20465;-65
2022/03/09 01:01:41;;;;;;;;;;;;;;;4.57;64.04;100413.09;4997434;28;20308;-65
2022/03/09 01:04:25;;;;;;;;;;;;;;;4.59;63.77;100408.06;4997517;28;19956;-66
2022/03/09 01:07:09;;;;;;;;;;;;;;;4.59;64.01;100410.63;4997626;28;19961;-65
2022/03/09 01:09:53;;;;;;;;;;;;;;;4.58;63.83;100407.16;4997094;28;19968;-66
2022/03/09 01:12:37;;;;;;;;;;;;;;;4.59;63.85;100405.50;4996246;28;19987;-65
2022/03/09 01:15:21;;;;;;;;;;;;;;;4.57;63.24;100410.53;4996057;28;19924;-66
2022/03/09 01:18:05;;;;;;;;;;;;;;;4.56;63.69;100399.41;4996823;28;20355;-65
2022/03/09 01:20:49;;;;;;;;;;;;;;;4.53;63.46;100408.63;4995992;28;20305;-65
2022/03/09 01:23:33;;;;;;;;;;;;;;;4.52;63.46;100397.50;4997305;28;19924;-65
2022/03/09 01:26:17;;;;;;;;;;;;;;;4.52;63.24;100396.59;4996411;28;20012;-66
2022/03/09 01:29:00;;;;;;;;;;;;;;;4.51;62.53;100390.59;4996955;28;19971;-66
2022/03/09 01:31:44;;;;;;;;;;;;;;;4.53;62.95;100398.34;4995714;28;20012;-65
2022/03/09 01:34:28;;;;;;;;;;;;;;;4.51;63.14;100397.44;4996761;28;19940;-65
2022/03/09 01:37:12;;;;;;;;;;;;;;;4.50;62.71;100390.53;4996217;28;20052;-65
2022/03/09 01:39:56;;;;;;;;;;;;;;;4.51;62.85;100385.47;4996690;28;20070;-65
2022/03/09 01:42:41;;;;;;;;;;;;;;;4.52;63.22;100388.91;4996437;28;19948;-65
2022/03/09 01:45:25;;;;;;;;;;;;;;;4.52;63.43;100382.09;4996598;28;20420;-65
2022/03/09 01:48:09;;;;;;;;;;;;;;;4.53;62.90;100390.66;4996872;28;19940;-66
2022/03/09 01:50:53;;;;;;;;;;;;;;;4.53;62.84;100383.84;4995966;28;20017;-66
2022/03/09 01:53:37;;;;;;;;;;;;;;;4.52;63.09;100394.94;4995081;28;19925;-66
2022/03/09 01:56:21;;;;;;;;;;;;;;;4.51;63.05;100395.72;4995877;28;19925;-65
2022/03/09 01:59:07;;;;;;;;;;;;;;;4.50;62.25;100396.53;4995806;28;20440;-65
2022/03/09 02:01:51;;;;;;;;;;;;;;;4.50;62.85;100386.28;4995937;28;20031;-66
2022/03/09 02:04:35;;;;;;;;;;;;;;;4.48;62.21;100393.03;4996085;28;19992;-66
2022/03/09 02:09:41;;;;;;;;;;;;;;;4.48;62.89;100389.59;4996162;28;19967;-65
2022/03/09 02:10:23;;;;;;;;;;;;;;;4.46;62.06;100381.81;4995608;28;19968;-65
2022/03/09 02:13:07;;;;;;;;;;;;;;;4.47;61.99;100385.25;4995693;28;19925;-65
2022/03/09 02:15:51;;;;;;;;;;;;;;;4.46;62.23;100386.94;4995005;28;19924;-66
2022/03/09 02:18:35;;;;;;;;;;;;;;;4.47;62.40;100387.84;4995695;28;20443;-65
2022/03/09 02:21:20;;;;;;;;;;;;;;;4.47;62.68;100388.69;4996099;28;19924;-66
2022/03/09 02:24:04;;;;;;;;;;;;;;;4.46;62.73;100391.19;4995148;28;19929;-65
2022/03/09 02:26:48;;;;;;;;;;;;;;;4.44;62.75;100383.41;4996039;28;19924;-65
2022/03/09 02:29:33;;;;;;;;;;;;;;;4.44;62.30;100380.84;4996088;28;19925;-65
2022/03/09 02:32:17;;;;;;;;;;;;;;;4.43;62.79;100384.25;4995906;28;19925;-66
2022/03/09 02:35:01;;;;;;;;;;;;;;;4.41;61.80;100384.16;4994730;28;20331;-65
2022/03/09 02:37:44;;;;;;;;;;;;;;;4.40;62.22;100381.53;4995543;28;19929;-66
2022/03/09 02:40:28;;;;;;;;;;;;;;;4.39;61.39;100380.63;4994278;28;19968;-65
2022/03/09 02:43:12;;;;;;;;;;;;;;;4.38;61.43;100385.72;4995349;28;19952;-65
2022/03/09 02:45:56;;;;;;;;;;;;;;;4.39;61.55;100384.91;4995350;28;19964;-65
2022/03/09 02:48:40;;;;;;;;;;;;;;;4.40;61.66;100381.53;4995383;28;19993;-65
2022/03/09 02:51:24;;;;;;;;;;;;;;;4.41;61.55;100385.88;4995642;28;19927;-65
2022/03/09 02:54:08;;;;;;;;;;;;;;;4.41;61.60;100384.16;4994689;28;19929;-65
2022/03/09 02:56:51;;;;;;;;;;;;;;;4.39;61.91;100385.78;4993946;28;19940;-65
2022/03/09 02:59:35;;;;;;;;;;;;;;;4.39;62.09;100379.78;4994496;28;19929;-66
2022/03/09 03:02:19;;;;;;;;;;;;;;;4.40;62.23;100382.41;4993965;28;19964;-66
2022/03/09 03:05:04;;;;;;;;;;;;;;;4.41;62.34;100388.44;4994763;28;19955;-66
2022/03/09 03:07:48;;;;;;;;;;;;;;;4.39;61.64;100380.63;4994410;28;19925;-65
2022/03/09 03:10:32;;;;;;;;;;;;;;;4.39;61.77;100382.34;4993583;28;19933;-66
2022/03/09 03:13:16;;;;;;;;;;;;;;;4.39;61.68;100384.91;4994566;28;19925;-65
2022/03/09 03:16:00;;;;;;;;;;;;;;;4.39;62.14;100382.34;4994372;28;19924;-66
2022/03/09 03:18:43;;;;;;;;;;;;;;;4.37;61.84;100383.97;4995161;28;20131;-65
2022/03/09 03:21:27;;;;;;;;;;;;;;;4.36;61.88;100380.50;4994853;28;19924;-66
2022/03/09 03:24:11;;;;;;;;;;;;;;;4.34;61.45;100384.69;4994707;28;19925;-65
2022/03/09 03:26:55;;;;;;;;;;;;;;;4.33;61.41;100382.03;4994779;28;20380;-66
2022/03/09 03:29:39;;;;;;;;;;;;;;;4.30;61.19;100387.03;4994745;28;20477;-66
2022/03/09 03:32:23;;;;;;;;;;;;;;;4.31;61.24;100381.09;4994808;28;20392;-66
2022/03/09 03:35:08;;;;;;;;;;;;;;;4.29;60.50;100391.28;4994679;28;20013;-65
2022/03/09 03:37:53;;;;;;;;;;;;;;;4.28;60.68;100388.66;4994456;28;20354;-66
2022/03/09 03:40:37;;;;;;;;;;;;;;;4.28;60.84;100388.66;4994437;28;20362;-66
2022/03/09 03:43:21;;;;;;;;;;;;;;;4.30;61.41;100394.72;4994507;28;20288;-65
2022/03/09 03:46:05;;;;;;;;;;;;;;;4.33;61.73;100394.88;4994792;28;20473;-66
2022/03/09 03:48:49;;;;;;;;;;;;;;;4.34;60.92;100388.94;4993539;28;20028;-66
2022/03/09 03:51:33;;;;;;;;;;;;;;;4.33;61.36;100385.50;4994531;28;19925;-66
2022/03/09 03:54:17;;;;;;;;;;;;;;;4.34;61.29;100386.38;4994291;28;19924;-66
2022/03/09 03:57:01;;;;;;;;;;;;;;;4.31;61.38;100382.00;4993258;28;19924;-66
2022/03/09 03:59:45;;;;;;;;;;;;;;;4.32;60.85;100382.84;4993932;28;19925;-66
2022/03/09 04:02:28;;;;;;;;;;;;;;;4.32;61.39;100387.97;4994323;28;20423;-65
2022/03/09 04:05:12;;;;;;;;;;;;;;;4.31;60.95;100386.22;4994329;28;19924;-66
2022/03/09 04:07:56;;;;;;;;;;;;;;;4.29;60.53;100382.69;4994303;28;20017;-66
2022/03/09 04:10:40;;;;;;;;;;;;;;;4.28;61.00;100381.84;4994601;28;19964;-66
2022/03/09 04:13:24;;;;;;;;;;;;;;;4.28;60.76;100383.53;4994613;28;19968;-66
2022/03/09 04:16:08;;;;;;;;;;;;;;;4.28;60.33;100384.41;4997235;28;19924;-66
2022/03/09 04:18:52;;;;;;;;;;;;;;;4.25;60.24;100368.84;4997986;28;19995;-66
2022/03/09 04:21:36;;;;;;;;;;;;;;;4.25;60.32;100374.00;4997060;28;20331;-65
2022/03/09 04:24:20;;;;;;;;;;;;;;;4.24;60.51;100378.25;4996566;28;19952;-65
2022/03/09 04:27:04;;;;;;;;;;;;;;;4.23;60.46;100373.03;4997545;28;19937;-65
2022/03/09 04:29:48;;;;;;;;;;;;;;;4.22;60.46;100379.88;4997262;28;19925;-66
2022/03/09 04:32:34;;;;;;;;;;;;;;;4.22;60.01;100382.44;4997941;28;19924;-65
2022/03/09 04:35:18;;;;;;;;;;;;;;;4.23;60.77;100381.63;4996566;28;20010;-65
2022/03/09 04:38:02;;;;;;;;;;;;;;;4.22;60.55;100382.44;4998001;28;19924;-65
2022/03/09 04:40:46;;;;;;;;;;;;;;;4.22;60.26;100385.00;4997995;28;19924;-65
2022/03/09 04:43:29;;;;;;;;;;;;;;;4.22;60.00;100384.09;4997563;28;20064;-65
2022/03/09 04:46:14;;;;;;;;;;;;;;;4.20;60.08;100380.63;4997593;28;20002;-65
2022/03/09 04:48:59;;;;;;;;;;;;;;;4.20;60.06;100378.91;4996981;28;20012;-65
2022/03/09 04:51:43;;;;;;;;;;;;;;;4.18;59.79;100374.53;4997229;28;20001;-65
2022/03/09 04:54:27;;;;;;;;;;;;;;;4.16;59.92;100379.56;4997112;28;19968;-66
2022/03/09 04:57:11;;;;;;;;;;;;;;;4.12;59.60;100367.41;4997499;28;19924;-65
2022/03/09 04:59:55;;;;;;;;;;;;;;;4.12;60.33;100372.56;4997258;28;20068;-65
2022/03/09 05:02:40;;;;;;;;;;;;;;;4.11;59.62;100375.94;4995955;28;20064;-66
2022/03/09 05:05:23;;;;;;;;;;;;;;;4.08;59.66;100374.06;4996370;28;19972;-65
2022/03/09 05:08:09;;;;;;;;;;;;;;;4.07;59.28;100382.56;4996034;28;19968;-65
2022/03/09 05:10:53;;;;;;;;;;;;;;;4.04;59.09;100371.28;4996171;28;20378;-65
2022/03/09 05:13:37;;;;;;;;;;;;;;;4.04;59.54;100377.31;4997200;28;20336;-66
2022/03/09 05:16:22;;;;;;;;;;;;;;;4.03;59.39;100380.69;4996636;28;19924;-65
2022/03/09 05:19:06;;;;;;;;;;;;;;;4.03;59.75;100375.56;4995760;28;19924;-65
2022/03/09 05:21:50;;;;;;;;;;;;;;;4.04;59.17;100377.31;4996350;28;19924;-66
2022/03/09 05:24:34;;;;;;;;;;;;;;;4.06;59.37;100374.81;4997278;28;20064;-65
2022/03/09 05:27:18;;;;;;;;;;;;;;;4.05;59.79;100378.19;4995051;28;19924;-65
2022/03/09 05:30:02;;;;;;;;;;;;;;;4.05;59.34;100380.75;4996206;28;19925;-65
2022/03/09 05:32:46;;;;;;;;;;;;;;;4.04;59.44;100384.13;4996677;28;19984;-65
2022/03/09 05:35:30;;;;;;;;;;;;;;;4.02;59.39;100389.19;4996760;28;20008;-65
2022/03/09 05:38:14;;;;;;;;;;;;;;;4.04;59.07;100390.16;4997089;28;20000;-65
2022/03/09 05:40:59;;;;;;;;;;;;;;;4.03;59.38;100380.69;4996530;28;20277;-66
2022/03/09 05:43:43;;;;;;;;;;;;;;;4.06;59.68;100388.50;4996508;28;20405;-66
2022/03/09 05:46:27;;;;;;;;;;;;;;;4.10;59.73;100387.00;4995312;28;20281;-66
2022/03/09 05:49:11;;;;;;;;;;;;;;;4.13;60.11;100396.50;4995455;28;19924;-65
2022/03/09 05:51:55;;;;;;;;;;;;;;;4.14;60.36;100399.13;4995985;28;19945;-66
2022/03/09 05:54:39;;;;;;;;;;;;;;;4.14;59.77;100396.56;4996036;28;20278;-65
2022/03/09 05:57:23;;;;;;;;;;;;;;;4.14;59.78;100401.69;4995514;28;20332;-65
2022/03/09 06:00:07;;;;;;;;;;;;;;;4.15;60.38;100405.16;4996598;28;19924;-66
2022/03/09 06:02:51;;;;;;;;;;;;;;;4.16;60.04;100406.91;4994982;28;20407;-65
2022/03/09 06:05:35;;;;;;;;;;;;;;;4.15;60.05;100410.28;4996524;28;20420;-65
2022/03/09 06:08:19;;;;;;;;;;;;;;;4.17;59.78;100416.38;4995991;28;19925;-65
2022/03/09 06:11:04;;;;;;;;;;;;;;;4.13;59.62;100410.19;4996111;28;20495;-66
2022/03/09 06:13:48;;;;;;;;;;;;;;;4.11;59.65;100415.28;4994998;28;19967;-65
2022/03/09 06:16:32;;;;;;;;;;;;;;;4.11;60.33;100422.97;4996264;28;19925;-65
2022/03/09 06:19:16;;;;;;;;;;;;;;;4.11;60.14;100414.41;4994537;28;19924;-64
2022/03/09 06:22:00;;;;;;;;;;;;;;;4.13;59.69;100422.16;4996037;28;20014;-65
2022/03/09 06:24:44;;;;;;;;;;;;;;;4.14;59.71;100424.78;4994912;28;19984;-65
2022/03/09 06:27:28;;;;;;;;;;;;;;;4.14;60.07;100423.94;4996056;28;19924;-65
2022/03/09 06:30:12;;;;;;;;;;;;;;;4.13;59.73;100420.47;4995464;28;19924;-65
2022/03/09 06:32:56;;;;;;;;;;;;;;;4.13;59.54;100427.28;4994583;28;19968;-65
2022/03/09 06:35:40;;;;;;;;;;;;;;;4.12;60.41;100426.44;4995522;28;19924;-65
2022/03/09 06:38:24;;;;;;;;;;;;;;;4.11;59.94;100425.53;4995395;28;19972;-65
2022/03/09 06:41:08;;;;;;;;;;;;;;;4.10;60.02;100422.91;4995357;28;20419;-66
2022/03/09 06:43:52;;;;;;;;;;;;;;;4.10;59.66;100425.47;4994423;28;19968;-66
2022/03/09 06:46:36;;;;;;;;;;;;;;;4.10;59.87;100426.34;4995531;28;19929;-66
2022/03/09 06:49:20;;;;;;;;;;;;;;;4.11;60.15;100435.78;4995722;28;19925;-65
2022/03/09 06:52:04;;;;;;;;;;;;;;;4.11;59.47;100435.78;4995152;28;20391;-65
2022/03/09 06:54:48;;;;;;;;;;;;;;;4.11;59.77;100437.50;4995653;28;20399;-65
2022/03/09 06:57:32;;;;;;;;;;;;;;;4.10;59.99;100439.16;4995420;28;19972;-65
2022/03/09 07:00:16;;;;;;;;;;;;;;;4.09;59.74;100442.53;4994580;28;19972;-65
2022/03/09 07:03:02;;;;;;;;;;;;;;;4.10;59.63;100446.84;4995356;28;20277;-65
2022/03/09 07:05:46;;;;;;;;;;;;;;;4.11;59.65;100452.88;4995389;28;20015;-65
2022/03/09 07:08:36;;;;;;;;;;;;;;;4.11;59.44;100456.31;4994517;28;19963;-65
2022/03/09 07:11:20;;;;;;;;;;;;;;;4.09;59.47;100470.75;4994822;28;20441;-65
2022/03/09 07:14:04;;;;;;;;;;;;;;;4.09;59.64;100468.19;4995241;28;19941;-65
2022/03/09 07:16:48;;;;;;;;;;;;;;;4.08;59.06;100470.69;4994729;28;20431;-65
2022/03/09 07:19:32;;;;;;;;;;;;;;;4.09;59.36;100483.56;4993665;28;19940;-66
2022/03/09 07:22:16;;;;;;;;;;;;;;;4.09;59.53;100490.41;4994559;28;20460;-65
2022/03/09 07:25:00;;;;;;;;;;;;;;;4.08;59.21;100486.06;4994176;28;20277;-65
2022/03/09 07:27:44;;;;;;;;;;;;;;;4.06;59.02;100478.28;4994174;28;19925;-65
2022/03/09 07:30:27;;;;;;;;;;;;;;;4.06;59.07;100480.00;4993628;28;19940;-65
2022/03/09 07:33:11;;;;;;;;;;;;;;;4.06;58.99;100478.28;4993950;28;20305;-64
2022/03/09 07:35:56;;;;;;;;;;;;;;;4.06;59.26;100483.41;4994665;28;19924;-65
2022/03/09 07:38:40;;;;;;;;;;;;;;;4.07;59.23;100489.44;4993866;28;19971;-65
2022/03/09 07:41:24;;;;;;;;;;;;;;;4.07;58.87;100487.75;4993965;28;19929;-65
2022/03/09 07:44:08;;;;;;;;;;;;;;;4.10;59.29;100490.47;4993925;28;20089;-65
2022/03/09 07:46:52;;;;;;;;;;;;;;;4.10;58.88;100493.03;4994315;28;19925;-65
2022/03/09 07:49:37;;;;;;;;;;;;;;;4.11;58.87;100502.50;4993946;28;19933;-65
2022/03/09 07:52:21;;;;;;;;;;;;;;;4.13;59.16;100499.13;4994312;28;20008;-65
2022/03/09 07:55:06;;;;;;;;;;;;;;;4.14;59.17;100501.75;4994077;28;19956;-65
2022/03/09 07:57:50;;;;;;;;;;;;;;;4.14;59.19;100503.44;4994458;28;19964;-65
2022/03/09 08:00:34;;;;;;;;;;;;;;;4.15;58.88;100502.66;4994506;28;19939;-65
2022/03/09 08:03:18;;;;;;;;;;;;;;;4.16;58.72;100500.16;4993067;28;19964;-65
2022/03/09 08:06:02;;;;;;;;;;;;;;;4.18;58.99;100502.81;4994441;28;19988;-65
2022/03/09 08:08:46;;;;;;;;;;;;;;;4.18;59.35;100497.69;4994178;28;20389;-65
2022/03/09 08:11:30;;;;;;;;;;;;;;;4.18;59.00;100507.94;4993961;28;19925;-64
2022/03/09 08:14:15;;;;;;;;;;;;;;;4.19;58.95;100496.88;4992993;28;19929;-65
2022/03/09 08:16:59;;;;;;;;;;;;;;;4.21;58.93;100497.81;4993973;28;19933;-65
2022/03/09 08:19:43;;;;;;;;;;;;;;;4.22;58.78;100497.00;4993531;28;19968;-65
2022/03/09 08:22:27;;;;;;;;;;;;;;;4.23;58.84;100506.47;4994477;28;19963;-65
2022/03/09 08:25:11;;;;;;;;;;;;;;;4.24;58.91;100508.22;4994109;28;20312;-66
2022/03/09 08:27:55;;;;;;;;;;;;;;;4.26;59.00;100504.94;4993226;28;19975;-65
2022/03/09 08:30:40;;;;;;;;;;;;;;;4.29;59.01;100509.34;4994480;28;19932;-65
2022/03/09 08:33:24;;;;;;;;;;;;;;;4.32;59.37;100521.44;4993163;28;20007;-64
2022/03/09 08:36:11;;;;;;;;;;;;;;;4.34;59.12;100512.13;4993921;28;19925;-64
2022/03/09 08:38:55;;;;;;;;;;;;;;;4.36;59.62;100513.09;4994070;28;20336;-65
2022/03/09 08:41:39;;;;;;;;;;;;;;;4.40;59.35;100515.00;4993314;28;19964;-65
2022/03/09 08:44:24;;;;;;;;;;;;;;;4.43;59.54;100504.88;4992992;28;19980;-65
2022/03/09 08:47:08;;;;;;;;;;;;;;;4.46;59.44;100506.72;4994079;28;19949;-65
2022/03/09 08:49:52;;;;;;;;;;;;;;;4.51;59.55;100507.81;4993370;28;19988;-64
2022/03/09 08:52:36;;;;;;;;;;;;;;;4.52;59.96;100506.97;4993796;28;19929;-64
2022/03/09 08:55:20;;;;;;;;;;;;;;;4.55;59.59;100500.34;4994087;28;19925;-64
2022/03/09 08:58:04;;;;;;;;;;;;;;;4.60;59.97;100502.22;4994205;28;19929;-64
2022/03/09 09:00:48;;;;;;;;;;;;;;;4.64;59.77;100505.03;4994047;28;20296;-64
2022/03/09 09:03:32;;;;;;;;;;;;;;;4.67;59.67;100505.16;4996718;28;20344;-64
2022/03/09 09:06:16;;;;;;;;;;;;;;;4.70;59.84;100505.28;4996620;28;19968;-64
2022/03/09 09:09:00;;;;;;;;;;;;;;;4.75;59.25;100507.22;4997250;28;20277;-64
2022/03/09 09:11:44;;;;;;;;;;;;;;;4.80;59.23;100511.75;4997583;28;19924;-65
2022/03/09 09:14:28;;;;;;;;;;;;;;;4.80;60.19;100514.31;4996893;28;19968;-65
2022/03/09 09:17:12;;;;;;;;;;;;;;;4.82;60.08;100510.13;4996842;28;19940;-64
2022/03/09 09:19:56;;;;;;;;;;;;;;;4.84;59.78;100512.75;4997159;28;19967;-64
2022/03/09 09:22:42;;;;;;;;;;;;;;;4.85;59.92;100515.44;4996622;28;19924;-64
2022/03/09 09:25:27;;;;;;;;;;;;;;;4.87;59.53;100513.81;4997022;28;19925;-64
2022/03/09 09:28:12;;;;;;;;;;;;;;;4.90;60.24;100525.03;4996299;28;19945;-65
2022/03/09 09:30:56;;;;;;;;;;;;;;;4.94;60.39;100519.22;4997075;28;19925;-65
2022/03/09 09:33:40;;;;;;;;;;;;;;;4.94;60.12;100514.97;4995687;28;20582;-64
2022/03/09 09:36:24;;;;;;;;;;;;;;;4.96;60.08;100512.47;4995513;28;19924;-64
2022/03/09 09:39:07;;;;;;;;;;;;;;;4.97;60.10;100514.22;4995975;28;19924;-64
2022/03/09 09:41:52;;;;;;;;;;;;;;;5.02;60.13;100512.75;4995920;28;19925;-65
2022/03/09 09:44:36;;;;;;;;;;;;;;;5.05;60.12;100518.03;4995995;28;19929;-64
2022/03/09 09:47:20;;;;;;;;;;;;;;;5.10;60.56;100506.25;4996514;28;19924;-64
2022/03/09 09:50:06;;;;;;;;;;;;;;;5.11;60.11;100510.59;4996792;28;19988;-64
2022/03/09 09:52:50;;;;;;;;;;;;;;;5.13;59.76;100508.97;4995650;28;20317;-64
2022/03/09 09:55:34;;;;;;;;;;;;;;;5.14;59.75;100508.16;4996508;28;19972;-65
2022/03/09 09:58:18;;;;;;;;;;;;;;;5.16;59.98;100514.25;4996493;28;19936;-64
2022/03/09 10:01:02;;;;;;;;;;;;;;;5.22;60.26;100507.63;4996610;28;19933;-64
2022/03/09 10:03:46;;;;;;;;;;;;;;;5.23;59.77;100514.53;4996506;28;19964;-64
2022/03/09 10:06:31;;;;;;;;;;;;;;;5.23;59.73;100510.28;4995830;28;20340;-64
2022/03/09 10:09:15;;;;;;;;;;;;;;;5.26;59.97;100514.66;4995713;28;19928;-64
2022/03/09 10:11:59;;;;;;;;;;;;;;;5.26;59.79;100505.28;4995956;28;19924;-64
2022/03/09 10:14:43;;;;;;;;;;;;;;;5.28;59.47;100502.78;4996143;28;20013;-65
2022/03/09 10:17:28;;;;;;;;;;;;;;;5.31;59.64;100508.06;4995815;28;20052;-64
2022/03/09 10:20:12;;;;;;;;;;;;;;;5.34;59.96;100510.78;4995495;28;20057;-64
2022/03/09 10:22:59;;;;;;;;;;;;;;;5.35;59.71;100502.25;4995696;28;20385;-64
2022/03/09 10:25:46;;;;;;;;;;;;;;;5.37;60.01;100510.00;4994695;28;19979;-65
2022/03/09 10:28:30;;;;;;;;;;;;;;;5.38;60.12;100509.19;4995977;28;19940;-66
2022/03/09 10:31:31;;;;;;;;;;;;;;;5.42;59.97;100508.53;4995509;28;19924;-64
2022/03/09 10:34:20;;;;;;;;;;;;;;;5.46;60.27;100508.72;4994801;28;19975;-65
2022/03/09 10:37:16;;;;;;;;;;;;;;;5.49;59.54;100511.44;4994758;28;20007;-64
2022/03/09 10:40:07;;;;;;;;;;;;;;;5.55;59.90;100507.38;4994916;28;19985;-65
2022/03/09 10:42:51;;;;;;;;;;;;;;;5.58;60.22;100504.94;4995183;28;19925;-64
2022/03/09 10:45:36;;;;;;;;;;;;;;;5.58;60.29;100516.13;4995123;28;20450;-65
2022/03/09 10:48:20;;;;;;;;;;;;;;;5.57;60.08;100506.63;4995195;28;19924;-64
2022/03/09 10:51:03;;;;;;;;;;;;;;;5.59;59.62;100519.56;4995173;28;20293;-65
2022/03/09 10:53:47;;;;;;;;;;;;;;;5.59;59.71;100511.84;4995651;28;19948;-65
2022/03/09 10:56:32;;;;;;;;;;;;;;;5.60;59.64;100513.59;4994721;28;20368;-64
2022/03/09 10:59:18;;;;;;;;;;;;;;;5.62;60.04;100523.13;4994255;28;19965;-65
2022/03/09 11:02:02;;;;;;;;;;;;;;;5.61;59.97;100516.22;4994108;28;19925;-64
2022/03/09 11:05:25;;;;;;;;;;;;;;;5.62;59.59;100509.41;4995376;28;19979;-65
2022/03/09 11:08:08;;;;;;;;;;;;;;;5.63;60.09;100509.47;4953981;29;19925;-64
2022/03/09 11:10:55;;;;;;;;;;;;;;;5.62;59.70;100505.13;4954420;29;20361;-64
2022/03/09 11:13:39;;;;;;;;;;;;;;;5.61;60.22;100511.09;4985730;28;19924;-64
2022/03/09 11:16:23;;;;;;;;;;;;;;;5.60;59.90;100499.06;4994605;28;19933;-65
2022/03/09 11:19:07;;;;;;;;;;;;;;;5.61;60.26;100507.66;4994589;28;19964;-65
2022/03/09 11:21:51;;;;;;;;;;;;;;;5.60;60.20;100503.31;4994732;28;19979;-64
2022/03/09 11:24:39;;;;;;;;;;;;;;;5.62;60.20;100499.13;4994111;28;19929;-65
2022/03/09 11:27:23;;;;;;;;;;;;;;;5.62;59.92;100493.97;4993591;28;20392;-65
2022/03/09 11:30:22;;;;;;;;;;;;;;;5.63;60.58;100499.16;4994277;28;19925;-65
2022/03/09 11:33:26;;;;;;;;;;;;;;;5.65;60.04;100491.53;4993765;28;20341;-65
2022/03/09 11:36:22;;;;;;;;;;;;;;;5.68;59.88;100495.94;4993308;28;19925;-64
2022/03/09 11:39:09;;;;;;;;;;;;;;;5.68;59.84;100496.81;4993950;28;19984;-64
2022/03/09 11:42:11;;;;;;;;;;;;;;;5.69;60.17;100482.25;4993735;28;19964;-64
2022/03/09 11:45:16;;;;;;;;;;;;;;;5.69;59.97;100483.13;4994606;28;20432;-65
2022/03/09 11:48:04;;;;;;;;;;;;;;;5.70;60.29;100482.31;4994712;28;19925;-64
2022/03/09 11:50:48;;;;;;;;;;;;;;;5.71;60.36;100476.34;4993190;28;20391;-65
2022/03/09 11:53:40;;;;;;;;;;;;;;;5.74;60.15;100480.78;4994074;28;19925;-65
2022/03/09 11:56:30;;;;;;;;;;;;;;;5.73;60.05;100468.72;4993931;28;19968;-65
2022/03/09 11:59:15;;;;;;;;;;;;;;;5.73;60.39;100469.59;4994432;28;19925;-64
2022/03/09 12:02:07;;;;;;;;;;;;;;;5.73;59.95;100464.44;4993377;28;19925;-66
2022/03/09 12:04:51;;;;;;;;;;;;;;;5.78;60.27;100469.78;4993780;28;19972;-65
2022/03/09 12:07:35;;;;;;;;;;;;;;;5.82;60.29;100463.94;4993362;28;19929;-64
2022/03/09 12:10:21;;;;;;;;;;;;;;;5.83;59.97;100464.84;4994621;28;19924;-65
2022/03/09 12:13:08;;;;;;;;;;;;;;;5.84;60.29;100471.75;4993523;28;19938;-65
2022/03/09 12:16:00;;;;;;;;;;;;;;;5.84;59.99;100464.91;4993071;28;20436;-64
2022/03/09 12:18:45;;;;;;;;;;;;;;;5.85;60.18;100470.91;4993796;28;19924;-64
2022/03/09 12:21:33;;;;;;;;;;;;;;;5.87;59.96;100461.56;4993077;28;19976;-65
2022/03/09 12:24:16;;;;;;;;;;;;;;;5.88;60.12;100453.03;4993204;28;19956;-64
2022/03/09 12:27:00;;;;;;;;;;;;;;;5.88;59.83;100447.88;4994467;28;20457;-65
2022/03/09 12:29:44;;;;;;;;;;;;;;;5.88;60.04;100453.03;4994190;28;19924;-66
2022/03/09 12:32:39;;;;;;;;;;;;;;;5.88;59.92;100448.78;4994148;28;19925;-65
2022/03/09 12:35:23;;;;;;;;;;;;;;;5.87;60.16;100446.13;4993868;28;19972;-65
2022/03/09 12:38:07;;;;;;;;;;;;;;;5.87;59.90;100452.16;4997568;28;20020;-64
2022/03/09 12:40:50;;;;;;;;;;;;;;;5.89;60.52;100450.56;4997737;28;19924;-65
2022/03/09 12:43:47;;;;;;;;;;;;;;;5.91;60.16;100448.03;4997285;28;20118;-66
2022/03/09 12:46:33;;;;;;;;;;;;;;;5.92;60.14;100442.94;4996900;28;19932;-65
2022/03/09 12:49:20;;;;;;;;;;;;;;;5.94;60.17;100448.16;4997620;28;19972;-65
2022/03/09 12:52:07;;;;;;;;;;;;;;;5.95;60.23;100442.19;4996905;28;20286;-65
2022/03/09 12:54:56;;;;;;;;;;;;;;;5.95;60.17;100440.50;4997608;28;19924;-65
2022/03/09 12:57:40;;;;;;;;;;;;;;;5.98;59.75;100436.28;4996498;28;19925;-66
2022/03/09 13:00:25;;;;;;;;;;;;;;;5.99;60.28;100435.47;4997407;28;19925;-66
2022/03/09 13:03:09;;;;;;;;;;;;;;;5.99;60.47;100436.38;4997219;28;20301;-65
2022/03/09 13:05:53;;;;;;;;;;;;;;;6.00;60.39;100425.25;4997412;28;19925;-65
2022/03/09 13:08:37;;;;;;;;;;;;;;;6.01;60.48;100426.16;4997588;28;19924;-66
2022/03/09 13:11:31;;;;;;;;;;;;;;;6.02;60.41;100431.34;4997296;28;20392;-65
2022/03/09 13:14:16;;;;;;;;;;;;;;;6.02;60.26;100423.63;4996379;28;19975;-66
2022/03/09 13:17:01;;;;;;;;;;;;;;;6.01;60.20;100416.72;4997212;28;19925;-65
2022/03/09 13:19:45;;;;;;;;;;;;;;;6.02;60.13;100420.19;4996327;28;19928;-65
2022/03/09 13:22:39;;;;;;;;;;;;;;;6.02;60.18;100418.50;4995976;28;19972;-65
2022/03/09 13:25:30;;;;;;;;;;;;;;;6.04;60.54;100410.84;4995800;28;20336;-65
2022/03/09 13:28:14;;;;;;;;;;;;;;;6.04;60.49;100414.28;4996777;28;20029;-65
2022/03/09 13:30:58;;;;;;;;;;;;;;;6.04;59.85;100408.28;4996723;28;20032;-66
2022/03/09 13:33:42;;;;;;;;;;;;;;;6.04;60.28;100413.44;4995712;28;20062;-65
2022/03/09 13:36:26;;;;;;;;;;;;;;;6.02;60.42;100413.34;4996234;28;19925;-66
2022/03/09 13:39:11;;;;;;;;;;;;;;;6.02;60.60;100413.34;4996259;28;19964;-65
2022/03/09 13:41:55;;;;;;;;;;;;;;;6.03;60.34;100412.53;4996325;28;19972;-66
2022/03/09 13:44:39;;;;;;;;;;;;;;;6.06;60.02;100416.94;4996251;28;20010;-65
2022/03/09 13:47:23;;;;;;;;;;;;;;;6.06;60.34;100412.66;4995059;28;20008;-65
2022/03/09 13:50:15;;;;;;;;;;;;;;;6.06;59.98;100411.78;4996468;28;19940;-65
2022/03/09 13:53:06;;;;;;;;;;;;;;;6.06;60.39;100398.94;4996027;28;20015;-65
2022/03/09 13:55:51;;;;;;;;;;;;;;;6.05;60.36;100404.88;4995141;28;20288;-65
2022/03/09 13:58:40;;;;;;;;;;;;;;;6.05;60.48;100403.19;4996788;28;19975;-66
2022/03/09 14:01:29;;;;;;;;;;;;;;;6.07;60.47;100398.13;4996224;28;19972;-65
2022/03/09 14:04:13;;;;;;;;;;;;;;;6.09;59.97;100394.78;4996511;28;19923;-65
2022/03/09 14:06:57;;;;;;;;;;;;;;;6.08;60.34;100400.75;4996204;28;20416;-65
2022/03/09 14:09:41;;;;;;;;;;;;;;;6.07;60.44;100406.69;4996517;28;19972;-65
2022/03/09 14:12:25;;;;;;;;;;;;;;;6.07;60.56;100404.13;4996035;28;19928;-65
2022/03/09 14:15:09;;;;;;;;;;;;;;;6.08;60.77;100400.75;4995805;28;19925;-65
2022/03/09 14:17:53;;;;;;;;;;;;;;;6.09;60.55;100399.91;4995512;28;20293;-66
2022/03/09 14:20:37;;;;;;;;;;;;;;;6.10;60.00;100403.34;4996141;28;19924;-65